createdAt,value
2023-07-03T00:00:19.918Z,59.99
2023-07-03T00:05:24.056Z,60.85
2023-07-03T00:10:25.018Z,60.65
2023-07-03T00:15:25.879Z,61.20
2023-07-03T00:20:28.261Z,60.99
2023-07-03T00:25:29.070Z,61.45
2023-07-03T00:30:29.925Z,61.49
2023-07-03T00:35:30.732Z,61.52
2023-07-03T00:40:31.765Z,62.11
2023-07-03T00:45:33.959Z,62.50
2023-07-03T00:50:35.394Z,62.21
2023-07-03T00:55:38.419Z,62.52
2023-07-03T01:00:43.327Z,62.45
2023-07-03T01:05:50.360Z,63.35
2023-07-03T01:10:52.099Z,64.05
2023-07-03T01:15:54.392Z,63.80
2023-07-03T01:21:06.418Z,64.32
2023-07-03T01:26:08.573Z,64.32
2023-07-03T01:31:10.808Z,65.43
2023-07-03T01:36:13.363Z,65.45
2023-07-03T01:41:16.664Z,65.54
2023-07-03T01:46:17.596Z,65.47
2023-07-03T01:51:26.090Z,66.86
2023-07-03T01:56:32.850Z,65.17
2023-07-03T02:02:08.186Z,66.67
2023-07-03T02:07:11.925Z,66.33
2023-07-03T02:12:12.960Z,66.29
2023-07-03T02:17:13.875Z,67.16
2023-07-03T02:22:14.751Z,66.77
2023-07-03T02:27:15.740Z,66.77
2023-07-03T02:32:16.682Z,66.98
2023-07-03T02:37:19.296Z,67.53
2023-07-03T02:42:20.157Z,67.71
2023-07-03T02:47:21.135Z,67.99
2023-07-03T02:52:22.181Z,66.76
2023-07-03T02:57:23.245Z,66.60
2023-07-03T03:02:24.144Z,64.75
2023-07-03T03:07:25.216Z,63.02
2023-07-03T03:12:26.105Z,60.72
2023-07-03T03:17:26.976Z,59.22
2023-07-03T03:22:27.945Z,55.25
2023-07-03T03:27:28.818Z,52.33
2023-07-03T03:32:30.464Z,49.57
2023-07-03T03:37:31.394Z,47.90
2023-07-03T03:42:32.255Z,47.98
2023-07-03T03:47:33.598Z,50.47
2023-07-03T03:52:34.721Z,52.42
2023-07-03T03:57:35.602Z,54.23
2023-07-03T04:02:36.479Z,55.22
2023-07-03T04:07:37.425Z,55.97
2023-07-03T04:12:38.257Z,56.52
2023-07-03T04:17:39.154Z,56.65
2023-07-03T04:22:41.669Z,57.12
2023-07-03T04:27:42.732Z,57.08
2023-07-03T04:32:43.702Z,57.75
2023-07-03T04:37:46.078Z,57.63
2023-07-03T04:42:46.987Z,57.67
2023-07-03T04:47:48.416Z,57.23
2023-07-03T04:52:50.176Z,56.91
2023-07-03T04:57:51.061Z,56.99
2023-07-03T05:02:52.509Z,56.45
2023-07-03T05:07:54.413Z,56.15
2023-07-03T05:12:56.833Z,55.91
2023-07-03T05:17:58.537Z,55.26
2023-07-03T05:22:59.687Z,54.57
2023-07-03T05:28:00.553Z,53.85
2023-07-03T05:33:01.531Z,53.73
2023-07-03T05:38:03.268Z,53.78
2023-07-03T05:43:04.169Z,53.34
2023-07-03T05:48:05.942Z,52.98
2023-07-03T05:53:09.606Z,52.43
2023-07-03T05:58:12.000Z,52.28
2023-07-03T06:03:12.948Z,52.24
2023-07-03T06:08:13.916Z,51.64
2023-07-03T06:13:14.994Z,51.86
2023-07-03T06:18:15.824Z,52.15
2023-07-03T06:23:17.360Z,52.41
2023-07-03T06:28:18.207Z,52.23
2023-07-03T06:33:19.480Z,51.59
2023-07-03T06:38:20.636Z,51.46
2023-07-03T06:43:21.460Z,50.58
2023-07-03T06:48:22.300Z,49.90
2023-07-03T06:53:23.257Z,49.99
2023-07-03T06:58:24.756Z,49.92
2023-07-03T07:03:25.712Z,48.45
2023-07-03T07:08:26.789Z,48.38
2023-07-03T07:13:27.707Z,47.36
2023-07-03T07:18:28.619Z,46.03
2023-07-03T07:23:29.632Z,46.05
2023-07-03T07:28:31.083Z,46.04
2023-07-03T07:33:31.949Z,44.39
2023-07-03T07:38:32.885Z,43.83
2023-07-03T07:43:33.877Z,43.86
2023-07-03T07:48:35.361Z,44.36
2023-07-03T07:53:37.113Z,43.95
2023-07-03T07:58:38.540Z,44.29
2023-07-03T08:03:40.097Z,44.02
2023-07-03T08:08:40.990Z,43.37
2023-07-03T08:13:42.404Z,43.62
2023-07-03T08:18:45.059Z,42.77
2023-07-03T08:23:47.139Z,41.30
2023-07-03T08:28:48.406Z,40.41
2023-07-03T08:33:49.592Z,39.92
2023-07-03T08:38:50.614Z,39.22
2023-07-03T08:43:57.093Z,39.72
2023-07-03T08:49:04.587Z,39.67
2023-07-03T08:54:18.772Z,39.20
2023-07-03T08:59:19.648Z,38.66
2023-07-03T09:04:43.833Z,39.53
2023-07-03T09:10:05.261Z,40.64
2023-07-03T09:15:23.405Z,39.97
2023-07-03T09:20:26.708Z,40.55
2023-07-03T09:25:43.372Z,40.17
2023-07-03T09:30:44.272Z,39.78
2023-07-03T09:35:45.869Z,40.24
2023-07-03T09:40:50.987Z,40.14
2023-07-03T09:46:04.471Z,39.69
2023-07-03T09:51:22.583Z,39.64
2023-07-03T09:56:30.334Z,38.97
2023-07-03T10:06:39.607Z,38.57
2023-07-03T10:12:19.660Z,37.96
2023-07-03T10:17:40.429Z,39.47
2023-07-03T10:22:44.125Z,39.77
2023-07-03T10:27:48.441Z,39.75
2023-07-03T10:32:52.494Z,40.22
2023-07-03T10:38:34.636Z,40.42
2023-07-03T10:43:51.403Z,39.84
2023-07-03T10:48:56.697Z,39.32
2023-07-03T10:54:07.347Z,40.01
2023-07-03T10:59:26.666Z,40.13
2023-07-03T11:04:43.446Z,40.57
2023-07-03T11:10:11.473Z,39.95
2023-07-03T11:15:30.679Z,40.46
2023-07-03T11:31:26.043Z,38.80
2023-07-03T11:36:49.690Z,38.88
2023-07-03T11:46:59.571Z,37.41
2023-07-03T11:52:03.679Z,36.90
2023-07-03T11:57:26.728Z,37.37
2023-07-03T12:02:27.553Z,37.78
2023-07-03T12:07:28.366Z,36.89
2023-07-03T12:12:31.402Z,36.67
2023-07-03T12:17:37.299Z,36.13
2023-07-03T12:22:44.105Z,36.38
2023-07-03T12:27:46.662Z,36.73
2023-07-03T12:32:52.993Z,35.86
2023-07-03T12:38:00.870Z,34.95
2023-07-03T12:43:01.773Z,35.51
2023-07-03T12:48:19.158Z,35.24
2023-07-03T12:53:20.048Z,34.95
2023-07-03T12:58:22.802Z,36.16
2023-07-03T13:03:23.662Z,35.47
2023-07-03T13:08:25.396Z,35.46
2023-07-03T13:13:27.207Z,35.06
2023-07-03T13:18:28.296Z,34.38
2023-07-03T13:23:38.728Z,34.32
2023-07-03T13:28:51.764Z,34.20
2023-07-03T13:34:16.930Z,33.53
2023-07-03T13:39:29.424Z,33.92
2023-07-03T13:44:30.872Z,34.76
2023-07-03T13:49:31.827Z,35.25
2023-07-03T13:54:35.809Z,35.08
2023-07-03T13:59:36.671Z,34.63
2023-07-03T14:04:37.727Z,34.99
2023-07-03T14:09:38.772Z,34.52
2023-07-03T14:14:39.623Z,34.45
2023-07-03T14:19:40.477Z,33.46
2023-07-03T14:24:41.311Z,33.26
2023-07-03T14:29:42.163Z,33.36
2023-07-03T14:34:42.993Z,33.98
2023-07-03T14:39:43.866Z,34.65
2023-07-03T14:44:44.759Z,35.13
2023-07-03T14:49:46.353Z,35.67
2023-07-03T14:54:47.608Z,36.11
2023-07-03T14:59:48.565Z,36.33
2023-07-03T15:04:49.586Z,36.73
2023-07-03T15:09:50.931Z,35.69
2023-07-03T15:14:51.761Z,34.74
2023-07-03T15:19:56.339Z,34.37
2023-07-03T15:24:58.265Z,34.27
2023-07-03T15:29:59.166Z,34.84
2023-07-03T15:35:00.880Z,35.24
2023-07-03T15:40:03.165Z,35.52
2023-07-03T15:45:04.971Z,35.72
2023-07-03T15:50:06.715Z,35.77
2023-07-03T15:55:08.499Z,34.86
2023-07-03T16:00:10.587Z,35.12
2023-07-03T16:05:11.531Z,36.11
2023-07-03T16:10:13.085Z,36.56
2023-07-03T16:15:14.169Z,36.29
2023-07-03T16:20:17.571Z,36.50
2023-07-03T16:25:21.299Z,36.57
2023-07-03T16:30:22.163Z,35.82
2023-07-03T16:35:22.990Z,34.56
2023-07-03T16:40:23.892Z,34.62
2023-07-03T16:45:24.872Z,35.11
2023-07-03T16:50:25.779Z,34.47
2023-07-03T16:55:26.906Z,33.47
2023-07-03T17:00:28.119Z,33.07
2023-07-03T17:05:29.081Z,33.11
2023-07-03T17:10:30.000Z,33.12
2023-07-03T17:15:32.659Z,33.74
2023-07-03T17:20:33.627Z,33.23
2023-07-03T17:25:34.791Z,33.34
2023-07-03T17:30:37.104Z,34.41
2023-07-03T17:35:41.523Z,34.15
2023-07-03T17:40:44.209Z,34.60
2023-07-03T17:45:45.403Z,34.91
2023-07-03T17:50:47.222Z,35.26
2023-07-03T17:55:49.150Z,35.62
2023-07-03T18:00:52.465Z,36.17
2023-07-03T18:05:57.315Z,36.29
2023-07-03T18:10:58.212Z,36.88
2023-07-03T18:15:59.364Z,37.26
2023-07-03T18:21:00.725Z,37.28
2023-07-03T18:26:01.757Z,37.94
2023-07-03T18:31:03.891Z,38.18
2023-07-03T18:36:05.566Z,38.33
2023-07-03T18:41:06.528Z,39.00
2023-07-03T18:46:08.483Z,39.24
2023-07-03T18:51:14.417Z,39.64
2023-07-03T18:56:18.682Z,39.92
2023-07-03T19:01:19.756Z,40.29
2023-07-03T19:06:22.869Z,41.03
2023-07-03T19:11:24.384Z,41.05
2023-07-03T19:16:25.392Z,41.50
2023-07-03T19:21:27.423Z,41.53
2023-07-03T19:26:29.936Z,42.52
2023-07-03T19:31:30.933Z,42.28
2023-07-03T19:36:32.040Z,42.65
2023-07-03T19:41:32.857Z,42.80
2023-07-03T19:46:33.748Z,43.22
2023-07-03T19:51:36.225Z,43.50
2023-07-03T19:56:37.258Z,43.83
2023-07-03T20:01:38.181Z,43.88
2023-07-03T20:06:39.153Z,44.16
2023-07-03T20:11:40.125Z,44.44
2023-07-03T20:16:41.255Z,44.56
2023-07-03T20:21:42.972Z,44.85
2023-07-03T20:26:43.845Z,45.02
2023-07-03T20:31:44.894Z,45.95
2023-07-03T20:36:48.450Z,46.22
2023-07-03T20:41:49.558Z,46.16
2023-07-03T20:46:53.405Z,46.99
2023-07-03T20:51:55.961Z,47.56
2023-07-03T20:56:56.784Z,48.35
2023-07-03T21:01:57.839Z,49.40
2023-07-03T21:07:00.246Z,49.54
2023-07-03T21:12:01.319Z,50.31
2023-07-03T21:17:02.346Z,51.03
2023-07-03T21:22:04.603Z,52.04
2023-07-03T21:27:05.919Z,52.31
2023-07-03T21:32:08.025Z,51.92
2023-07-03T21:37:09.373Z,52.92
2023-07-03T21:42:10.238Z,53.98
2023-07-03T21:47:13.525Z,53.30
2023-07-03T21:52:14.357Z,55.52
2023-07-03T21:57:18.520Z,55.51
2023-07-03T22:02:19.384Z,55.22
2023-07-03T22:07:20.325Z,55.38
2023-07-03T22:12:23.520Z,55.74
2023-07-03T22:17:24.558Z,56.10
2023-07-03T22:22:27.184Z,56.44
2023-07-03T22:27:28.193Z,55.78
2023-07-03T22:32:30.466Z,56.33
2023-07-03T22:37:31.738Z,55.86
2023-07-03T22:42:32.817Z,56.71
2023-07-03T22:47:33.876Z,57.22
2023-07-03T22:52:35.687Z,57.19
2023-07-03T22:57:36.708Z,57.29
2023-07-03T23:02:39.145Z,57.77
2023-07-03T23:07:40.196Z,57.21
2023-07-03T23:12:41.064Z,57.96
2023-07-03T23:17:42.297Z,58.10
2023-07-03T23:22:43.172Z,60.02
2023-07-03T23:27:45.541Z,58.96
2023-07-03T23:32:46.566Z,58.87
2023-07-03T23:37:47.414Z,58.98
2023-07-03T23:42:48.297Z,59.94
2023-07-03T23:47:50.702Z,59.73
2023-07-03T23:52:53.349Z,60.29
2023-07-03T23:57:54.241Z,61.35
